Decoded Metar for YMAV (AVALON in AUSTRALIA) (IATA:AVV) | Meteo·Mobile Aviation Weather
aviador You're here:

YMAV Decoded Metar

AVALON in AUSTRALIA
Report Time2018-10-23 09:30:00
UTC Time2018-10-23 09:53:33
Flight Rules vfr VFR
Wind250° at 12 kt
W.Decomp.*RWY 18: 6.2 kt HW 10.3 kt RCW
W.Rank250° ranks 15
Current wind is above 250° avg. (10.5)
Visibility9999 m
Phenomena:N/A
Clouds:Overcast 077 Hf
Expected CloudBase > 3,600 ft AGL from Temp-Dew spread
Ceiling7,700 ft
Temp13°C (ISA -2)
Dew Point04°C (55% RH)
AAT7.4°C
QNH1020 hPa
Density Alt-331 ft
Elevation26 ft
Report Wrong Elevation
Raw Report
YMAV 230930Z AUTO 25012KT 9999 // OVC077 13/04 Q1020
RF00.0/000.0=

Extra information for YMAV:More info

Metar Taf Metar & Taf Last 4 Metars F.Rules Stats Wind Profile Meteogram Temp Stats Airport Information Weather charts Add Link Nearby VenuesMetar ALERT Operation Metar Decoded Social comments